Time;durP1;ratioP1;P1;durP2;ratioP2;P2;SDS_P1;SDS_P2;PMS_P1;PMS_P2;Temp;Humidity;BMP_temperature;BMP_pressure;BME280_temperature;BME280_humidity;BME280_pressure;Samples;Min_cycle;Max_cycle;Signal;HPM_P1;HPM_P2
2023/09/15 00:00:20;;;;;;;;;;;;;;;14.95;100.00;96759.25;5167171;27;19958;-71
2023/09/15 00:02:47;;;;;;;;;;;;;;;14.95;100.00;96759.25;5167023;27;20230;-74
2023/09/15 00:05:13;;;;;;;;;;;;;;;14.97;100.00;96756.38;5167167;27;19946;-71
2023/09/15 00:07:39;;;;;;;;;;;;;;;14.96;100.00;96757.41;5166697;27;20046;-71
2023/09/15 00:10:11;;;;;;;;;;;;;;;14.95;100.00;96756.63;5166500;27;20320;-71
2023/09/15 00:12:38;;;;;;;;;;;;;;;14.96;100.00;96754.78;5166724;27;19964;-71
2023/09/15 00:15:10;;;;;;;;;;;;;;;14.94;100.00;96751.56;5166783;27;20262;-71
2023/09/15 00:17:36;;;;;;;;;;;;;;;14.92;100.00;96754.44;5167015;27;19955;-70
2023/09/15 00:20:36;;;;;;;;;;;;;;;14.91;100.00;96742.28;5166912;27;19951;-71
2023/09/15 00:22:55;;;;;;;;;;;;;;;14.92;100.00;96748.38;5161732;27;20143;-77
2023/09/15 00:25:23;;;;;;;;;;;;;;;14.91;100.00;96755.50;5147991;27;19960;-69
2023/09/15 00:27:51;;;;;;;;;;;;;;;14.89;100.00;96748.81;5166798;27;19951;-69
2023/09/15 00:30:18;;;;;;;;;;;;;;;14.88;100.00;96742.75;5166788;27;19968;-69
2023/09/15 00:32:45;;;;;;;;;;;;;;;14.87;100.00;96748.28;5147841;27;19964;-69
2023/09/15 00:35:11;;;;;;;;;;;;;;;14.84;100.00;96738.97;5147861;27;19959;-69
2023/09/15 00:37:37;;;;;;;;;;;;;;;14.81;100.00;96737.63;5166678;27;19955;-69
2023/09/15 00:40:08;;;;;;;;;;;;;;;14.78;100.00;96745.22;5166187;27;19958;-78
2023/09/15 00:42:34;;;;;;;;;;;;;;;14.76;100.00;96749.94;5148021;27;19961;-78
2023/09/15 00:45:05;;;;;;;;;;;;;;;14.72;100.00;96748.78;5166560;27;19951;-79
2023/09/15 00:47:33;;;;;;;;;;;;;;;14.67;100.00;96738.94;5131209;27;19946;-77
2023/09/15 00:50:00;;;;;;;;;;;;;;;14.63;100.00;96745.75;5166556;27;19956;-78
2023/09/15 00:52:27;;;;;;;;;;;;;;;14.59;100.00;96744.59;5166407;27;19958;-78
2023/09/15 00:54:54;;;;;;;;;;;;;;;14.56;100.00;96740.59;5131016;27;19978;-78
2023/09/15 00:57:19;;;;;;;;;;;;;;;14.52;100.00;96738.66;5166160;27;19963;-79
2023/09/15 00:59:45;;;;;;;;;;;;;;;14.48;100.00;96735.66;5166335;27;19954;-77
2023/09/15 01:02:12;;;;;;;;;;;;;;;14.43;100.00;96730.31;5170079;27;19951;-70
2023/09/15 01:04:39;;;;;;;;;;;;;;;14.40;100.00;96730.75;5152153;27;19956;-71
2023/09/15 01:07:06;;;;;;;;;;;;;;;14.36;100.00;96733.09;5170480;27;19950;-71
2023/09/15 01:09:32;;;;;;;;;;;;;;;14.31;100.00;96732.97;5170010;27;19961;-70
2023/09/15 01:11:58;;;;;;;;;;;;;;;14.29;100.00;96735.03;5170424;27;20151;-70
2023/09/15 01:14:24;;;;;;;;;;;;;;;14.26;100.00;96727.63;5170424;27;19955;-71
2023/09/15 01:16:58;;;;;;;;;;;;;;;14.19;100.00;96727.75;5169983;27;19937;-82
2023/09/15 01:19:35;;;;;;;;;;;;;;;14.15;100.00;96726.63;5152034;27;19954;-78
2023/09/15 01:22:08;;;;;;;;;;;;;;;14.11;100.00;96720.19;5151927;27;20148;-79
2023/09/15 01:24:50;;;;;;;;;;;;;;;14.08;100.00;96722.50;5169985;27;20264;-77
2023/09/15 01:27:16;;;;;;;;;;;;;;;14.00;100.00;96721.00;5170013;27;19957;-78
2023/09/15 01:29:53;;;;;;;;;;;;;;;13.96;100.00;96719.88;5169623;27;20285;-78
2023/09/15 01:32:19;;;;;;;;;;;;;;;13.91;100.00;96717.16;5134215;27;19973;-78
2023/09/15 01:34:46;;;;;;;;;;;;;;;13.87;100.00;96719.44;5151482;27;19964;-69
2023/09/15 01:37:12;;;;;;;;;;;;;;;13.85;100.00;96726.78;5169513;27;20247;-79
2023/09/15 01:39:38;;;;;;;;;;;;;;;13.84;100.00;96725.19;5170023;27;19948;-80
2023/09/15 01:42:04;;;;;;;;;;;;;;;13.82;100.00;96721.97;5169967;27;19961;-81
2023/09/15 01:44:30;;;;;;;;;;;;;;;13.78;100.00;96731.38;5169594;27;19979;-80
2023/09/15 01:46:56;;;;;;;;;;;;;;;13.75;100.00;96723.91;5151193;27;19955;-80
2023/09/15 01:49:24;;;;;;;;;;;;;;;13.72;100.00;96730.47;5151001;27;19956;-80
2023/09/15 01:51:50;;;;;;;;;;;;;;;13.71;100.00;96725.41;5169692;27;19953;-80
2023/09/15 01:54:16;;;;;;;;;;;;;;;13.70;100.00;96727.25;5169570;27;19979;-78
2023/09/15 01:56:42;;;;;;;;;;;;;;;13.67;100.00;96721.63;5169522;27;20252;-74
2023/09/15 01:59:08;;;;;;;;;;;;;;;13.64;100.00;96724.72;5169066;27;19950;-74
2023/09/15 02:01:34;;;;;;;;;;;;;;;13.61;100.00;96723.38;5150887;27;19958;-73
2023/09/15 02:04:00;;;;;;;;;;;;;;;13.62;100.00;96724.97;5168995;27;19982;-74
2023/09/15 02:06:26;;;;;;;;;;;;;;;13.59;100.00;96720.97;5169302;27;19991;-74
2023/09/15 02:08:52;;;;;;;;;;;;;;;13.59;100.00;96730.69;5168951;27;19990;-76
2023/09/15 02:11:18;;;;;;;;;;;;;;;13.57;100.00;96727.50;5168897;27;19958;-73
2023/09/15 02:13:44;;;;;;;;;;;;;;;13.54;100.00;96730.56;5150845;27;19960;-79
2023/09/15 02:16:11;;;;;;;;;;;;;;;13.53;100.00;96735.03;5168927;27;19952;-75
2023/09/15 02:18:37;;;;;;;;;;;;;;;13.50;100.00;96726.78;5168933;27;19952;-75
2023/09/15 02:21:03;;;;;;;;;;;;;;;13.50;100.00;96721.53;5168937;27;19956;-75
2023/09/15 02:23:29;;;;;;;;;;;;;;;13.49;100.00;96719.94;5150179;27;19964;-75
2023/09/15 02:25:55;;;;;;;;;;;;;;;13.47;100.00;96722.00;5169085;27;20051;-75
2023/09/15 02:28:21;;;;;;;;;;;;;;;13.46;100.00;96728.28;5168496;27;20255;-75
2023/09/15 02:30:48;;;;;;;;;;;;;;;13.42;100.00;96716.59;5169081;27;19957;-73
2023/09/15 02:33:13;;;;;;;;;;;;;;;13.41;100.00;96713.16;5168814;27;19975;-81
2023/09/15 02:35:40;;;;;;;;;;;;;;;13.39;100.00;96716.03;5133333;27;19956;-81
2023/09/15 02:38:06;;;;;;;;;;;;;;;13.38;100.00;96719.69;5168854;27;19961;-82
2023/09/15 02:40:32;;;;;;;;;;;;;;;13.37;100.00;96717.28;5168891;27;19955;-81
2023/09/15 02:42:58;;;;;;;;;;;;;;;13.36;100.00;96713.84;5133328;27;19956;-81
2023/09/15 02:45:24;;;;;;;;;;;;;;;13.32;100.00;96714.53;5168381;27;20142;-81
2023/09/15 02:47:49;;;;;;;;;;;;;;;13.29;100.00;96720.25;5168387;27;20016;-74
2023/09/15 02:50:15;;;;;;;;;;;;;;;13.26;100.00;96710.16;5168360;27;19954;-74
2023/09/15 02:52:41;;;;;;;;;;;;;;;13.23;100.00;96702.69;5168319;27;19961;-75
2023/09/15 02:55:08;;;;;;;;;;;;;;;13.22;100.00;96706.38;5168351;27;20141;-75
2023/09/15 02:57:34;;;;;;;;;;;;;;;13.20;100.00;96712.66;5167886;27;19953;-75
2023/09/15 03:00:00;;;;;;;;;;;;;;;13.19;100.00;96718.97;5168480;27;19957;-75
2023/09/15 03:02:25;;;;;;;;;;;;;;;13.17;100.00;96723.66;5168349;27;19962;-75
2023/09/15 03:04:51;;;;;;;;;;;;;;;13.17;100.00;96712.34;5168066;27;19942;-75
2023/09/15 03:07:17;;;;;;;;;;;;;;;13.16;100.00;96715.97;5167801;27;20042;-75
2023/09/15 03:09:43;;;;;;;;;;;;;;;13.15;100.00;96728.34;5168292;27;20001;-83
2023/09/15 03:12:09;;;;;;;;;;;;;;;13.12;100.00;96717.47;5168238;27;20118;-84
2023/09/15 03:14:35;;;;;;;;;;;;;;;13.08;100.00;96711.88;5168159;27;20001;-83
2023/09/15 03:17:01;;;;;;;;;;;;;;;13.06;100.00;96713.09;5167822;27;19956;-84
2023/09/15 03:19:27;;;;;;;;;;;;;;;13.03;100.00;96705.66;5168008;27;19966;-83
2023/09/15 03:21:53;;;;;;;;;;;;;;;13.02;100.00;96709.31;5168080;27;19989;-83
2023/09/15 03:24:19;;;;;;;;;;;;;;;13.00;100.00;96705.09;5167405;27;19951;-83
2023/09/15 03:26:46;;;;;;;;;;;;;;;13.01;100.00;96705.88;5167509;27;20245;-70
2023/09/15 03:29:12;;;;;;;;;;;;;;;13.00;100.00;96707.72;5167945;27;20257;-74
2023/09/15 03:31:38;;;;;;;;;;;;;;;12.99;100.00;96711.38;5149117;27;19954;-74
2023/09/15 03:34:04;;;;;;;;;;;;;;;12.98;100.00;96704.50;5167054;27;19952;-75
2023/09/15 03:36:30;;;;;;;;;;;;;;;12.97;100.00;96699.47;5148891;27;19953;-74
2023/09/15 03:38:56;;;;;;;;;;;;;;;12.95;100.00;96709.41;5167831;27;19954;-74
2023/09/15 03:41:24;;;;;;;;;;;;;;;12.92;100.00;96704.63;5167207;27;19953;-74
2023/09/15 03:43:50;;;;;;;;;;;;;;;12.89;100.00;96707.69;5167222;27;19949;-82
2023/09/15 03:46:16;;;;;;;;;;;;;;;12.86;100.00;96706.31;5167295;27;19993;-70
2023/09/15 03:48:42;;;;;;;;;;;;;;;12.85;100.00;96696.00;5167242;27;19978;-70
2023/09/15 03:51:08;;;;;;;;;;;;;;;12.82;100.00;96693.84;5148514;27;19968;-70
2023/09/15 03:53:34;;;;;;;;;;;;;;;12.80;100.00;96696.69;5167172;27;20247;-70
2023/09/15 03:55:59;;;;;;;;;;;;;;;12.78;100.00;96698.75;5166764;27;19971;-69
2023/09/15 03:58:25;;;;;;;;;;;;;;;12.76;100.00;96698.16;5167353;27;19947;-70
2023/09/15 04:00:51;;;;;;;;;;;;;;;12.75;100.00;96697.38;5167235;27;19953;-70
2023/09/15 04:03:17;;;;;;;;;;;;;;;12.74;100.00;96693.13;5167091;27;20162;-72
2023/09/15 04:05:43;;;;;;;;;;;;;;;12.73;100.00;96696.00;5167058;27;19997;-80
2023/09/15 04:08:09;;;;;;;;;;;;;;;12.70;100.00;96688.53;5148823;27;19957;-80
2023/09/15 04:10:35;;;;;;;;;;;;;;;12.70;100.00;96691.16;5167243;27;19957;-80
2023/09/15 04:13:00;;;;;;;;;;;;;;;12.68;100.00;96699.31;5148575;27;19960;-80
2023/09/15 04:15:26;;;;;;;;;;;;;;;12.67;100.00;96694.25;5166924;27;19963;-80
2023/09/15 04:17:54;;;;;;;;;;;;;;;12.65;100.00;96698.94;5166684;27;20223;-81
2023/09/15 04:20:20;;;;;;;;;;;;;;;12.65;100.00;96689.22;5167006;27;19961;-73
2023/09/15 04:22:46;;;;;;;;;;;;;;;12.66;100.00;96690.00;5166724;27;19960;-80
2023/09/15 04:25:12;;;;;;;;;;;;;;;12.66;100.00;96692.66;5166745;27;19960;-81
2023/09/15 04:27:38;;;;;;;;;;;;;;;12.65;100.00;96698.94;5148172;27;19972;-81
2023/09/15 04:30:04;;;;;;;;;;;;;;;12.60;100.00;96686.47;5148183;27;20097;-80
2023/09/15 04:32:30;;;;;;;;;;;;;;;12.59;100.00;96690.91;5147927;27;19976;-80
2023/09/15 04:34:56;;;;;;;;;;;;;;;12.58;100.00;96691.16;5165776;27;19961;-80
2023/09/15 04:37:22;;;;;;;;;;;;;;;12.58;100.00;96686.69;5166583;27;20018;-81
2023/09/15 04:39:51;;;;;;;;;;;;;;;12.56;100.00;96680.84;5166665;27;19948;-71
2023/09/15 04:42:17;;;;;;;;;;;;;;;12.55;100.00;96678.44;5166677;27;19961;-81
2023/09/15 04:44:43;;;;;;;;;;;;;;;12.52;100.00;96671.78;5166769;27;19951;-82
2023/09/15 04:47:11;;;;;;;;;;;;;;;12.52;100.00;96671.78;5166257;27;19953;-81
2023/09/15 04:49:37;;;;;;;;;;;;;;;12.52;100.00;96676.25;5166695;27;20239;-81
2023/09/15 04:52:03;;;;;;;;;;;;;;;12.50;100.00;96665.97;5148020;27;19952;-82
2023/09/15 04:54:29;;;;;;;;;;;;;;;12.51;100.00;96672.00;5147753;27;19996;-81
2023/09/15 04:56:55;;;;;;;;;;;;;;;12.52;100.00;96661.28;5166508;27;20015;-72
2023/09/15 04:59:21;;;;;;;;;;;;;;;12.55;100.00;96666.06;5166449;27;19965;-75
2023/09/15 05:01:46;;;;;;;;;;;;;;;12.58;100.00;96667.47;5166383;27;20002;-80
2023/09/15 05:04:15;;;;;;;;;;;;;;;12.61;100.00;96669.66;5130916;27;20255;-79
2023/09/15 05:06:42;;;;;;;;;;;;;;;12.65;100.00;96676.06;5166655;27;19960;-79
2023/09/15 05:09:11;;;;;;;;;;;;;;;12.69;100.00;96673.78;5166531;27;20139;-79
2023/09/15 05:11:37;;;;;;;;;;;;;;;12.73;100.00;96678.38;5166009;27;19967;-79
2023/09/15 05:14:03;;;;;;;;;;;;;;;12.78;100.00;96675.06;5166032;27;19968;-79
2023/09/15 05:16:29;;;;;;;;;;;;;;;12.83;100.00;96682.28;5147565;27;20261;-74
2023/09/15 05:18:55;;;;;;;;;;;;;;;12.86;100.00;96676.56;5166132;27;19993;-81
2023/09/15 05:21:21;;;;;;;;;;;;;;;12.89;100.00;96678.72;5147520;27;19956;-81
2023/09/15 05:23:47;;;;;;;;;;;;;;;12.92;100.00;96673.81;5166262;27;19964;-81
2023/09/15 05:26:13;;;;;;;;;;;;;;;12.95;100.00;96688.34;5166326;27;20022;-82
2023/09/15 05:28:39;;;;;;;;;;;;;;;12.95;100.00;96677.84;5166287;27;20252;-81
2023/09/15 05:31:05;;;;;;;;;;;;;;;12.97;100.00;96686.31;5165665;27;20217;-82
2023/09/15 05:33:30;;;;;;;;;;;;;;;12.98;100.00;96687.91;5166344;27;19957;-73
2023/09/15 05:35:57;;;;;;;;;;;;;;;13.05;100.00;96699.13;5147721;27;20281;-70
2023/09/15 05:38:23;;;;;;;;;;;;;;;13.23;100.00;96690.34;5166233;27;19951;-79
2023/09/15 05:40:49;;;;;;;;;;;;;;;13.50;100.00;96685.47;5147265;27;19958;-79
2023/09/15 05:43:18;;;;;;;;;;;;;;;13.75;100.00;96693.09;5147586;27;19974;-79
2023/09/15 05:45:44;;;;;;;;;;;;;;;13.96;100.00;96690.88;5165792;27;20138;-78
2023/09/15 05:48:12;;;;;;;;;;;;;;;14.17;100.00;96692.06;5169330;27;19952;-79
2023/09/15 05:50:38;;;;;;;;;;;;;;;14.44;100.00;96686.25;5169584;27;19962;-78
2023/09/15 05:53:04;;;;;;;;;;;;;;;14.73;100.00;96692.34;5151010;27;20147;-74
2023/09/15 05:55:31;;;;;;;;;;;;;;;15.00;100.00;96679.31;5169759;27;19957;-77
2023/09/15 05:57:57;;;;;;;;;;;;;;;15.25;100.00;96670.19;5150788;27;19969;-78
2023/09/15 06:00:22;;;;;;;;;;;;;;;15.49;100.00;96673.44;5150650;27;19938;-78
2023/09/15 06:02:48;;;;;;;;;;;;;;;15.73;100.00;96669.56;5169367;27;20004;-78
2023/09/15 06:05:16;;;;;;;;;;;;;;;15.95;100.00;96666.13;5150622;27;19960;-78
2023/09/15 06:07:41;;;;;;;;;;;;;;;16.12;100.00;96666.03;5169018;27;19958;-78
2023/09/15 06:10:07;;;;;;;;;;;;;;;16.27;100.00;96666.19;5169063;27;19948;-78
2023/09/15 06:12:33;;;;;;;;;;;;;;;16.44;100.00;96672.22;5169128;27;19962;-74
2023/09/15 06:14:59;;;;;;;;;;;;;;;16.59;100.00;96658.34;5169290;27;19985;-74
2023/09/15 06:17:27;;;;;;;;;;;;;;;16.72;100.00;96656.31;5169039;27;19953;-74
2023/09/15 06:19:53;;;;;;;;;;;;;;;16.84;100.00;96651.69;5169069;27;19961;-74
2023/09/15 06:22:19;;;;;;;;;;;;;;;16.96;100.00;96654.16;5169087;27;19956;-74
2023/09/15 06:24:45;;;;;;;;;;;;;;;17.03;100.00;96655.56;5150241;27;19968;-73
2023/09/15 06:27:11;;;;;;;;;;;;;;;17.09;100.00;96651.06;5169022;27;19957;-74
2023/09/15 06:29:37;;;;;;;;;;;;;;;17.13;100.00;96646.06;5150168;27;19950;-73
2023/09/15 06:32:03;;;;;;;;;;;;;;;17.18;99.66;96648.78;5150721;27;20184;-72
2023/09/15 06:34:29;;;;;;;;;;;;;;;17.24;99.41;96651.19;5168643;27;20263;-72
2023/09/15 06:36:55;;;;;;;;;;;;;;;17.31;99.44;96650.19;5168527;27;19958;-72
2023/09/15 06:39:23;;;;;;;;;;;;;;;17.38;99.54;96648.88;5168452;27;20110;-72
2023/09/15 06:41:49;;;;;;;;;;;;;;;17.44;97.58;96633.81;5168521;27;19958;-73
2023/09/15 06:44:15;;;;;;;;;;;;;;;17.47;97.72;96635.97;5168343;27;19958;-73
2023/09/15 06:46:41;;;;;;;;;;;;;;;17.50;98.24;96635.44;5168443;27;20026;-72
2023/09/15 06:49:08;;;;;;;;;;;;;;;17.56;98.53;96636.25;5168573;27;19971;-70
2023/09/15 06:51:33;;;;;;;;;;;;;;;17.63;98.10;96629.66;5149845;27;19957;-74
2023/09/15 06:54:00;;;;;;;;;;;;;;;17.72;98.05;96623.84;5149591;27;19948;-74
2023/09/15 06:56:27;;;;;;;;;;;;;;;17.78;97.95;96628.13;5168449;27;20127;-73
2023/09/15 06:58:53;;;;;;;;;;;;;;;17.83;97.91;96625.53;5166939;27;19965;-74
2023/09/15 07:01:19;;;;;;;;;;;;;;;17.91;95.35;96606.47;5167927;27;19956;-74
2023/09/15 07:03:45;;;;;;;;;;;;;;;17.99;96.77;96615.75;5168136;27;19972;-74
2023/09/15 07:06:13;;;;;;;;;;;;;;;18.08;95.71;96611.56;5149803;27;19957;-73
2023/09/15 07:08:39;;;;;;;;;;;;;;;18.15;97.26;96619.28;5167942;27;19954;-72
2023/09/15 07:11:05;;;;;;;;;;;;;;;18.27;95.83;96614.53;5167915;27;19952;-72
2023/09/15 07:13:31;;;;;;;;;;;;;;;18.34;95.99;96611.59;5168196;27;20117;-72
2023/09/15 07:15:57;;;;;;;;;;;;;;;18.43;95.10;96612.69;5168202;27;19991;-72
2023/09/15 07:18:23;;;;;;;;;;;;;;;18.40;93.86;96603.38;5167876;27;19991;-72
2023/09/15 07:20:49;;;;;;;;;;;;;;;18.32;94.34;96611.06;5167912;27;19956;-73
2023/09/15 07:23:15;;;;;;;;;;;;;;;18.32;95.02;96611.88;5167351;27;19963;-72
2023/09/15 07:25:45;;;;;;;;;;;;;;;18.35;95.04;96610.53;5167896;27;20239;-71
2023/09/15 07:28:11;;;;;;;;;;;;;;;18.38;94.24;96608.16;5167375;27;20215;-71
2023/09/15 07:30:37;;;;;;;;;;;;;;;18.25;93.98;96606.81;5167848;27;19962;-71
2023/09/15 07:33:03;;;;;;;;;;;;;;;18.23;95.51;96616.91;5167363;27;19948;-69
2023/09/15 07:35:29;;;;;;;;;;;;;;;18.36;95.83;96626.22;5148754;27;20158;-70
2023/09/15 07:37:55;;;;;;;;;;;;;;;18.38;95.39;96618.00;5167360;27;19959;-70
2023/09/15 07:40:22;;;;;;;;;;;;;;;18.40;95.05;96614.00;5167334;27;19957;-70
2023/09/15 07:42:48;;;;;;;;;;;;;;;18.48;95.27;96612.69;5167280;27;19959;-72
2023/09/15 07:45:14;;;;;;;;;;;;;;;18.62;96.64;96615.59;5167418;27;19947;-75
2023/09/15 07:47:40;;;;;;;;;;;;;;;18.78;95.40;96609.28;5148597;27;20277;-76
2023/09/15 07:50:06;;;;;;;;;;;;;;;18.94;95.82;96607.41;5167478;27;19954;-76
2023/09/15 07:52:33;;;;;;;;;;;;;;;19.11;94.76;96593.03;5167076;27;19955;-77
2023/09/15 07:54:59;;;;;;;;;;;;;;;19.20;96.48;96610.81;5167370;27;19948;-76
2023/09/15 07:57:25;;;;;;;;;;;;;;;19.36;93.22;96586.84;5167280;27;19949;-76
2023/09/15 07:59:51;;;;;;;;;;;;;;;19.41;92.95;96581.53;5167550;27;20285;-76
2023/09/15 08:02:20;;;;;;;;;;;;;;;19.45;93.13;96583.38;5166355;27;20466;-81
2023/09/15 08:04:46;;;;;;;;;;;;;;;19.56;92.91;96580.69;5166764;27;19985;-72
2023/09/15 08:07:12;;;;;;;;;;;;;;;19.67;92.32;96579.56;5167237;27;20239;-72
2023/09/15 08:09:38;;;;;;;;;;;;;;;19.76;92.46;96583.28;5166969;27;19959;-72
2023/09/15 08:12:04;;;;;;;;;;;;;;;19.82;92.25;96584.03;5166667;27;19959;-72
2023/09/15 08:14:30;;;;;;;;;;;;;;;19.86;92.09;96585.91;5166781;27;19955;-72
2023/09/15 08:16:57;;;;;;;;;;;;;;;19.92;93.41;96591.97;5166890;27;19962;-72
2023/09/15 08:19:23;;;;;;;;;;;;;;;19.96;92.71;96584.25;5166938;27;19959;-73
2023/09/15 08:21:49;;;;;;;;;;;;;;;19.94;92.15;96583.72;5166952;27;19956;-80
2023/09/15 08:24:15;;;;;;;;;;;;;;;19.86;91.64;96585.91;5166791;27;19959;-77
2023/09/15 08:26:40;;;;;;;;;;;;;;;19.82;92.49;96587.53;5166367;27;19988;-77
2023/09/15 08:29:06;;;;;;;;;;;;;;;19.88;94.78;96601.59;5166369;27;20151;-77
2023/09/15 08:31:32;;;;;;;;;;;;;;;19.98;91.88;96572.25;5166986;27;19954;-78
2023/09/15 08:33:58;;;;;;;;;;;;;;;20.04;93.04;96589.00;5166269;27;19958;-77
2023/09/15 08:36:26;;;;;;;;;;;;;;;20.13;93.05;96598.00;5166693;27;19957;-77
2023/09/15 08:38:52;;;;;;;;;;;;;;;20.18;93.32;96590.00;5166434;27;19968;-73
2023/09/15 08:41:23;;;;;;;;;;;;;;;20.29;93.40;96596.03;5166100;27;19954;-82
2023/09/15 08:43:49;;;;;;;;;;;;;;;20.41;93.09;96583.19;5166622;27;19968;-81
2023/09/15 08:46:16;;;;;;;;;;;;;;;20.57;92.63;96580.41;5166550;27;20117;-82
2023/09/15 08:48:46;;;;;;;;;;;;;;;20.61;91.46;96562.81;5166630;27;19956;-82
2023/09/15 08:51:12;;;;;;;;;;;;;;;20.61;91.58;96570.81;5148023;27;19956;-82
2023/09/15 08:53:38;;;;;;;;;;;;;;;20.65;91.82;96558.50;5166512;27;19955;-81
2023/09/15 08:56:04;;;;;;;;;;;;;;;20.64;91.27;96563.06;5148163;27;19968;-72
2023/09/15 08:58:30;;;;;;;;;;;;;;;20.68;91.11;96557.94;5166795;27;20106;-81
2023/09/15 09:00:57;;;;;;;;;;;;;;;20.71;91.93;96565.38;5166483;27;19969;-72
2023/09/15 09:03:23;;;;;;;;;;;;;;;20.80;94.27;96576.25;5166396;27;19958;-73
2023/09/15 09:05:49;;;;;;;;;;;;;;;20.93;95.19;96577.44;5166128;27;19952;-73
2023/09/15 09:08:17;;;;;;;;;;;;;;;21.02;92.09;96565.09;5165814;27;19960;-73
2023/09/15 09:10:44;;;;;;;;;;;;;;;21.06;92.60;96572.28;5166426;27;19956;-73
2023/09/15 09:13:10;;;;;;;;;;;;;;;21.10;92.05;96567.16;5166392;27;19957;-74
2023/09/15 09:15:36;;;;;;;;;;;;;;;21.13;94.10;96568.47;5166253;27;19969;-81
2023/09/15 09:18:13;;;;;;;;;;;;;;;21.19;90.36;96543.34;5166324;27;19984;-82
2023/09/15 09:20:39;;;;;;;;;;;;;;;21.18;92.36;96561.19;5130900;27;19985;-81
2023/09/15 09:23:06;;;;;;;;;;;;;;;21.20;92.16;96547.59;5169693;27;20139;-82
2023/09/15 09:25:34;;;;;;;;;;;;;;;21.23;94.07;96568.34;5170296;27;19964;-81
2023/09/15 09:28:01;;;;;;;;;;;;;;;21.25;94.02;96552.84;5170485;27;19960;-81
2023/09/15 09:30:29;;;;;;;;;;;;;;;21.25;94.64;96563.53;5170244;27;19949;-81
2023/09/15 09:32:56;;;;;;;;;;;;;;;21.29;94.89;96561.88;5169903;27;20247;-73
2023/09/15 09:35:22;;;;;;;;;;;;;;;21.33;95.48;96562.13;5169940;27;20091;-80
2023/09/15 09:37:48;;;;;;;;;;;;;;;21.34;93.15;96550.38;5151619;27;19957;-71
2023/09/15 09:40:14;;;;;;;;;;;;;;;21.36;92.73;96545.56;5169470;27;19960;-71
2023/09/15 09:42:41;;;;;;;;;;;;;;;21.42;92.04;96547.13;5169904;27;19961;-71
2023/09/15 09:45:07;;;;;;;;;;;;;;;21.44;94.31;96560.94;5169952;27;19989;-71
2023/09/15 09:47:33;;;;;;;;;;;;;;;21.52;94.44;96554.19;5169854;27;20127;-71
2023/09/15 09:50:03;;;;;;;;;;;;;;;21.56;93.97;96549.88;5170069;27;20001;-71
2023/09/15 09:52:29;;;;;;;;;;;;;;;21.56;92.81;96539.97;5151378;27;19960;-80
2023/09/15 09:54:55;;;;;;;;;;;;;;;21.59;94.60;96544.75;5169566;27;19953;-81
2023/09/15 09:57:21;;;;;;;;;;;;;;;21.62;93.89;96530.84;5169573;27;19952;-81
2023/09/15 09:59:48;;;;;;;;;;;;;;;21.66;94.24;96542.53;5169415;27;19951;-81
2023/09/15 10:02:14;;;;;;;;;;;;;;;21.64;90.62;96520.66;5150895;27;20248;-82
2023/09/15 10:04:39;;;;;;;;;;;;;;;21.63;92.18;96531.66;5150681;27;19964;-81
2023/09/15 10:07:05;;;;;;;;;;;;;;;21.64;91.40;96520.66;5151098;27;19963;-81
2023/09/15 10:09:31;;;;;;;;;;;;;;;21.69;92.55;96522.47;5151314;27;19939;-73
2023/09/15 10:11:57;;;;;;;;;;;;;;;21.72;89.97;96497.09;5169424;27;19955;-77
2023/09/15 10:14:25;;;;;;;;;;;;;;;21.69;89.89;96496.59;5169442;27;19949;-78
2023/09/15 10:16:51;;;;;;;;;;;;;;;21.72;91.88;96505.91;5169305;27;19965;-79
2023/09/15 10:19:18;;;;;;;;;;;;;;;21.74;92.94;96518.97;5168680;27;19938;-79
2023/09/15 10:21:44;;;;;;;;;;;;;;;21.77;91.08;96492.47;5169235;27;19962;-79
2023/09/15 10:24:11;;;;;;;;;;;;;;;21.84;93.41;96513.50;5168706;27;19970;-79
2023/09/15 10:26:41;;;;;;;;;;;;;;;21.94;93.36;96507.97;5169179;27;19957;-79
2023/09/15 10:29:13;;;;;;;;;;;;;;;22.05;88.06;96487.28;5169268;27;20244;-81
2023/09/15 10:31:43;;;;;;;;;;;;;;;22.13;88.71;96478.59;5168838;27;20264;-71
2023/09/15 10:34:09;;;;;;;;;;;;;;;22.20;85.96;96464.88;5167337;27;19962;-72
2023/09/15 10:36:35;;;;;;;;;;;;;;;22.30;88.99;96478.09;5169011;27;19956;-71
2023/09/15 10:39:14;;;;;;;;;;;;;;;22.43;88.82;96481.91;5168819;27;19952;-71
2023/09/15 10:41:40;;;;;;;;;;;;;;;22.61;90.27;96481.03;5168822;27;19964;-72
2023/09/15 10:44:06;;;;;;;;;;;;;;;22.78;84.94;96447.59;5150365;27;19987;-72
2023/09/15 10:46:39;;;;;;;;;;;;;;;22.94;86.40;96454.22;5168322;27;19955;-82
2023/09/15 10:49:12;;;;;;;;;;;;;;;23.15;87.01;96465.34;5168160;27;20256;-77
2023/09/15 10:51:40;;;;;;;;;;;;;;;23.32;85.79;96451.38;5168328;27;20208;-73
2023/09/15 10:54:05;;;;;;;;;;;;;;;23.47;83.72;96447.56;5168440;27;20135;-73
2023/09/15 10:56:32;;;;;;;;;;;;;;;23.53;81.83;96435.66;5168508;27;19956;-73
2023/09/15 10:58:58;;;;;;;;;;;;;;;23.59;80.47;96437.13;5168872;27;19958;-73
2023/09/15 11:01:24;;;;;;;;;;;;;;;23.66;83.14;96444.75;5168035;27;19955;-73
2023/09/15 11:03:50;;;;;;;;;;;;;;;23.69;77.83;96447.63;5168410;27;19970;-73
2023/09/15 11:06:18;;;;;;;;;;;;;;;23.73;83.56;96479.13;5168558;27;19954;-78
2023/09/15 11:08:44;;;;;;;;;;;;;;;23.76;79.00;96470.50;5167746;27;19942;-78
2023/09/15 11:11:10;;;;;;;;;;;;;;;23.80;80.22;96468.84;5167800;27;19947;-79
2023/09/15 11:13:36;;;;;;;;;;;;;;;23.91;79.61;96467.50;5167778;27;20230;-80
2023/09/15 11:16:03;;;;;;;;;;;;;;;23.98;82.17;96481.28;5168120;27;19978;-79
2023/09/15 11:18:35;;;;;;;;;;;;;;;24.11;81.00;96480.44;5167700;27;19954;-78
2023/09/15 11:21:02;;;;;;;;;;;;;;;24.24;77.97;96468.06;5168007;27;19963;-78
2023/09/15 11:23:28;;;;;;;;;;;;;;;24.38;79.76;96475.25;5167798;27;19969;-72
2023/09/15 11:26:01;;;;;;;;;;;;;;;24.56;81.40;96481.53;5167680;27;19963;-72
2023/09/15 11:28:28;;;;;;;;;;;;;;;24.65;77.40;96466.28;5167884;27;19948;-70
2023/09/15 11:30:54;;;;;;;;;;;;;;;24.78;79.88;96473.44;5167263;27;20178;-70
2023/09/15 11:33:22;;;;;;;;;;;;;;;24.91;72.07;96455.66;5167759;27;19952;-70
2023/09/15 11:35:48;;;;;;;;;;;;;;;24.97;75.85;96472.41;5167208;27;19984;-70
2023/09/15 11:38:14;;;;;;;;;;;;;;;25.14;75.32;96472.47;5167321;27;20111;-70
2023/09/15 11:40:47;;;;;;;;;;;;;;;25.17;72.58;96463.00;5167626;27;19997;-70
2023/09/15 11:43:13;;;;;;;;;;;;;;;25.05;75.51;96469.78;5167267;27;20250;-72
2023/09/15 11:45:39;;;;;;;;;;;;;;;25.19;76.14;96474.22;5148031;27;19978;-73
2023/09/15 11:48:05;;;;;;;;;;;;;;;25.29;71.40;96450.59;5167223;27;19963;-73
2023/09/15 11:50:31;;;;;;;;;;;;;;;25.28;73.67;96453.59;5167255;27;20261;-73
2023/09/15 11:52:57;;;;;;;;;;;;;;;25.34;76.28;96460.38;5167502;27;20111;-73
2023/09/15 11:55:24;;;;;;;;;;;;;;;25.39;71.79;96446.03;5148651;27;20155;-73
2023/09/15 11:57:51;;;;;;;;;;;;;;;25.41;71.87;96443.81;5167295;27;19947;-73
2023/09/15 12:00:20;;;;;;;;;;;;;;;25.34;73.93;96446.97;5166735;27;19959;-72
2023/09/15 12:02:47;;;;;;;;;;;;;;;25.24;74.06;96453.44;5166733;27;19944;-70
2023/09/15 12:05:14;;;;;;;;;;;;;;;25.34;74.82;96448.88;5148740;27;20287;-80
2023/09/15 12:07:39;;;;;;;;;;;;;;;25.47;73.15;96440.69;5167097;27;19956;-80
2023/09/15 12:10:06;;;;;;;;;;;;;;;25.64;76.62;96449.84;5148320;27;19965;-80
2023/09/15 12:12:32;;;;;;;;;;;;;;;25.68;74.87;96448.13;5166700;27;20122;-80
2023/09/15 12:15:01;;;;;;;;;;;;;;;25.62;69.31;96415.28;5166567;27;20027;-78
2023/09/15 12:17:27;;;;;;;;;;;;;;;25.57;74.46;96442.25;5166230;27;19949;-79
2023/09/15 12:20:00;;;;;;;;;;;;;;;25.49;71.62;96430.44;5166406;27;19972;-73
2023/09/15 12:22:30;;;;;;;;;;;;;;;25.36;72.09;96422.50;5166418;27;20246;-79
2023/09/15 12:24:57;;;;;;;;;;;;;;;25.23;70.99;96422.31;5166655;27;19967;-79
2023/09/15 12:27:23;;;;;;;;;;;;;;;25.15;74.25;96431.13;5148023;27;19952;-79
2023/09/15 12:29:49;;;;;;;;;;;;;;;25.21;73.19;96437.16;5166748;27;19948;-79
2023/09/15 12:32:15;;;;;;;;;;;;;;;25.31;73.75;96432.28;5166842;27;19966;-80
2023/09/15 12:34:42;;;;;;;;;;;;;;;25.57;74.51;96428.06;5166824;27;19987;-79
2023/09/15 12:37:08;;;;;;;;;;;;;;;25.69;72.91;96420.16;5166367;27;19961;-82